Time;durP1;ratioP1;P1;durP2;ratioP2;P2;SDS_P1;SDS_P2;PMS_P1;PMS_P2;Temp;Humidity;BMP_temperature;BMP_pressure;BME280_temperature;BME280_humidity;BME280_pressure;Samples;Min_cycle;Max_cycle;Signal;HPM_P1;HPM_P2
2021/09/01 00:00:13;;;;;;;24.87;22.80;;;;;;;;;;5035240;28;20454;-83
2021/09/01 00:02:40;;;;;;;25.47;23.30;;;;;;;;;;5034895;28;20892;-84
2021/09/01 00:05:08;;;;;;;25.53;22.87;;;;;;;;;;5035164;28;20429;-84
2021/09/01 00:07:35;;;;;;;24.07;22.00;;;;;;;;;;5035105;28;20411;-84
2021/09/01 00:10:05;;;;;;;23.07;21.20;;;;;;;;;;5034539;28;20906;-84
2021/09/01 00:12:32;;;;;;;24.20;22.20;;;;;;;;;;5034909;28;20469;-84
2021/09/01 00:15:00;;;;;;;24.17;21.83;;;;;;;;;;5035068;28;20801;-84
2021/09/01 00:17:27;;;;;;;23.60;21.50;;;;;;;;;;5034990;28;20440;-84
2021/09/01 00:19:54;;;;;;;23.27;21.10;;;;;;;;;;5034706;28;20474;-84
2021/09/01 00:22:22;;;;;;;22.43;20.60;;;;;;;;;;5033752;28;20452;-84
2021/09/01 00:24:49;;;;;;;23.47;21.30;;;;;;;;;;5034538;28;20444;-84
2021/09/01 00:27:18;;;;;;;23.13;21.40;;;;;;;;;;5034618;28;20502;-84
2021/09/01 00:29:45;;;;;;;22.73;20.90;;;;;;;;;;5034177;28;20418;-84
2021/09/01 00:32:13;;;;;;;21.70;19.77;;;;;;;;;;5034182;28;20480;-84
2021/09/01 00:34:40;;;;;;;23.73;21.20;;;;;;;;;;5033933;28;20463;-84
2021/09/01 00:37:08;;;;;;;23.03;21.07;;;;;;;;;;5034022;28;20423;-84
2021/09/01 00:39:35;;;;;;;23.77;21.27;;;;;;;;;;5034638;28;20425;-85
2021/09/01 00:42:03;;;;;;;23.47;21.80;;;;;;;;;;5034262;28;20437;-85
2021/09/01 00:44:32;;;;;;;22.83;20.50;;;;;;;;;;5034119;28;20443;-84
2021/09/01 00:47:00;;;;;;;22.83;21.17;;;;;;;;;;5034246;28;20414;-84
2021/09/01 00:49:28;;;;;;;22.97;21.03;;;;;;;;;;5034377;28;20445;-84
2021/09/01 00:51:56;;;;;;;22.90;20.77;;;;;;;;;;5034360;28;20466;-84
2021/09/01 00:54:24;;;;;;;22.30;19.90;;;;;;;;;;5034232;28;20462;-84
2021/09/01 00:56:52;;;;;;;23.27;21.23;;;;;;;;;;5034280;28;20439;-85
2021/09/01 00:59:20;;;;;;;21.87;20.20;;;;;;;;;;5033874;28;20530;-84
2021/09/01 01:01:49;;;;;;;23.30;21.50;;;;;;;;;;5034116;28;20488;-85
2021/09/01 01:04:17;;;;;;;22.80;20.80;;;;;;;;;;5034410;28;20414;-84
2021/09/01 01:06:44;;;;;;;21.93;20.30;;;;;;;;;;5034125;28;20418;-85
2021/09/01 01:09:12;;;;;;;22.13;20.37;;;;;;;;;;5034140;28;20486;-84
2021/09/01 01:11:39;;;;;;;22.27;20.23;;;;;;;;;;5034246;28;20451;-84
2021/09/01 01:14:07;;;;;;;21.77;20.37;;;;;;;;;;5033647;28;20416;-84
2021/09/01 01:16:35;;;;;;;22.70;20.80;;;;;;;;;;5034099;28;20429;-84
2021/09/01 01:19:03;;;;;;;23.70;21.27;;;;;;;;;;5033890;28;20408;-84
2021/09/01 01:21:31;;;;;;;21.77;19.87;;;;;;;;;;5033791;28;20414;-84
2021/09/01 01:23:59;;;;;;;22.63;21.03;;;;;;;;;;5033787;28;20881;-84
2021/09/01 01:26:28;;;;;;;23.27;20.80;;;;;;;;;;5034359;28;21012;-84
2021/09/01 01:28:56;;;;;;;23.40;21.07;;;;;;;;;;5034144;28;20402;-84
2021/09/01 01:31:24;;;;;;;23.20;21.20;;;;;;;;;;5033375;28;20482;-84
2021/09/01 01:33:52;;;;;;;21.90;20.27;;;;;;;;;;5033577;28;20508;-85
2021/09/01 01:36:19;;;;;;;22.80;21.00;;;;;;;;;;5037875;28;20431;-84
2021/09/01 01:38:47;;;;;;;21.77;20.00;;;;;;;;;;5037828;28;20452;-84
2021/09/01 01:41:15;;;;;;;23.63;21.83;;;;;;;;;;5037619;28;20439;-85
2021/09/01 01:43:46;;;;;;;24.10;22.17;;;;;;;;;;5037552;28;20437;-85
2021/09/01 01:46:14;;;;;;;22.70;20.77;;;;;;;;;;5037189;28;20420;-84
2021/09/01 01:48:41;;;;;;;21.30;19.87;;;;;;;;;;5037338;28;20476;-85
2021/09/01 01:51:09;;;;;;;22.07;20.20;;;;;;;;;;5037377;28;20415;-85
2021/09/01 01:53:36;;;;;;;22.37;20.60;;;;;;;;;;5037645;28;20416;-84
2021/09/01 01:56:03;;;;;;;22.20;20.43;;;;;;;;;;5037657;28;20801;-84
2021/09/01 01:58:31;;;;;;;21.97;20.07;;;;;;;;;;5037154;28;20440;-85
2021/09/01 02:01:00;;;;;;;22.37;20.70;;;;;;;;;;5035898;28;20787;-84
2021/09/01 02:03:27;;;;;;;22.93;20.77;;;;;;;;;;5037396;28;20410;-84
2021/09/01 02:05:54;;;;;;;22.53;20.57;;;;;;;;;;5037358;28;20404;-84
2021/09/01 02:08:22;;;;;;;23.00;21.20;;;;;;;;;;5036954;28;20456;-84
2021/09/01 02:10:49;;;;;;;21.77;20.20;;;;;;;;;;5037199;28;20433;-84
2021/09/01 02:13:17;;;;;;;22.10;20.07;;;;;;;;;;5036944;28;20463;-85
2021/09/01 02:15:44;;;;;;;20.67;19.10;;;;;;;;;;5036436;28;20408;-85
2021/09/01 02:18:13;;;;;;;22.90;21.30;;;;;;;;;;5037942;28;20428;-84
2021/09/01 02:20:41;;;;;;;21.10;19.30;;;;;;;;;;5035865;28;20550;-84
2021/09/01 02:23:08;;;;;;;20.83;19.37;;;;;;;;;;5036711;28;20442;-85
2021/09/01 02:25:35;;;;;;;23.07;21.07;;;;;;;;;;5036658;28;20441;-84
2021/09/01 02:28:03;;;;;;;21.70;20.27;;;;;;;;;;5037014;28;20491;-85
2021/09/01 02:30:30;;;;;;;20.97;19.77;;;;;;;;;;5036809;28;20787;-84
2021/09/01 02:32:58;;;;;;;21.40;19.80;;;;;;;;;;5036283;28;20499;-85
2021/09/01 02:35:27;;;;;;;21.50;19.97;;;;;;;;;;5035703;28;20825;-85
2021/09/01 02:37:54;;;;;;;20.63;19.30;;;;;;;;;;5036823;28;20443;-84
2021/09/01 02:40:22;;;;;;;20.93;19.17;;;;;;;;;;5036529;28;20401;-84
2021/09/01 02:42:49;;;;;;;22.37;20.37;;;;;;;;;;5036064;28;20441;-84
2021/09/01 02:45:17;;;;;;;21.07;19.47;;;;;;;;;;5035755;28;20436;-85
2021/09/01 02:47:45;;;;;;;21.60;19.90;;;;;;;;;;5036486;28;20878;-84
2021/09/01 02:50:13;;;;;;;22.03;20.30;;;;;;;;;;5036267;28;20468;-85
2021/09/01 02:52:42;;;;;;;21.73;20.20;;;;;;;;;;5036346;28;20487;-84
2021/09/01 02:55:09;;;;;;;20.93;19.47;;;;;;;;;;5036448;28;20794;-84
2021/09/01 02:57:37;;;;;;;22.00;20.40;;;;;;;;;;5036373;28;20831;-85
2021/09/01 03:00:05;;;;;;;21.90;20.27;;;;;;;;;;5036181;28;20914;-85
2021/09/01 03:02:32;;;;;;;21.00;19.60;;;;;;;;;;5036064;28;20407;-85
2021/09/01 03:05:00;;;;;;;22.70;20.90;;;;;;;;;;5035904;28;20457;-85
2021/09/01 03:07:27;;;;;;;21.40;19.80;;;;;;;;;;5036254;28;20886;-84
2021/09/01 03:09:56;;;;;;;21.83;19.53;;;;;;;;;;5035666;28;20914;-84
2021/09/01 03:12:24;;;;;;;21.80;20.17;;;;;;;;;;5035953;28;20500;-85
2021/09/01 03:14:51;;;;;;;23.67;21.50;;;;;;;;;;5035524;28;20447;-85
2021/09/01 03:17:19;;;;;;;21.83;20.33;;;;;;;;;;5035629;28;20446;-84
2021/09/01 03:19:46;;;;;;;23.47;21.67;;;;;;;;;;5035841;28;20441;-85
2021/09/01 03:22:13;;;;;;;21.93;20.37;;;;;;;;;;5035910;28;20456;-85
2021/09/01 03:24:41;;;;;;;22.20;20.20;;;;;;;;;;5034469;28;20422;-84
2021/09/01 03:27:09;;;;;;;22.03;20.60;;;;;;;;;;5035736;28;20514;-84
2021/09/01 03:29:37;;;;;;;24.50;22.40;;;;;;;;;;5035284;28;20426;-85
2021/09/01 03:32:04;;;;;;;22.93;20.87;;;;;;;;;;5035426;28;20462;-85
2021/09/01 03:34:32;;;;;;;22.67;20.90;;;;;;;;;;5035127;28;20461;-85
2021/09/01 03:36:59;;;;;;;23.27;21.30;;;;;;;;;;5035529;28;20440;-85
2021/09/01 03:39:26;;;;;;;22.87;21.50;;;;;;;;;;5035374;28;20418;-84
2021/09/01 03:41:54;;;;;;;22.57;20.93;;;;;;;;;;5034027;28;20521;-84
2021/09/01 03:44:23;;;;;;;22.63;20.93;;;;;;;;;;5034861;28;20532;-84
2021/09/01 03:46:50;;;;;;;23.07;21.33;;;;;;;;;;5035248;28;20442;-85
2021/09/01 03:49:18;;;;;;;23.63;21.50;;;;;;;;;;5034831;28;20880;-85
2021/09/01 03:51:45;;;;;;;23.43;21.70;;;;;;;;;;5035027;28;20440;-84
2021/09/01 03:54:13;;;;;;;22.93;21.40;;;;;;;;;;5035111;28;20757;-84
2021/09/01 03:56:40;;;;;;;24.17;22.10;;;;;;;;;;5035640;28;20455;-85
2021/09/01 03:59:08;;;;;;;21.83;20.27;;;;;;;;;;5034757;28;20423;-84
2021/09/01 04:01:36;;;;;;;22.67;20.90;;;;;;;;;;5034815;28;20521;-84
2021/09/01 04:04:04;;;;;;;22.43;20.83;;;;;;;;;;5034937;28;20422;-84
2021/09/01 04:06:31;;;;;;;22.83;21.23;;;;;;;;;;5034676;28;20418;-85
2021/09/01 04:08:59;;;;;;;24.33;22.40;;;;;;;;;;5034564;28;20429;-84
2021/09/01 04:11:26;;;;;;;23.73;22.07;;;;;;;;;;5035055;28;20426;-85
2021/09/01 04:13:54;;;;;;;22.60;20.80;;;;;;;;;;5034289;28;20465;-85
2021/09/01 04:16:22;;;;;;;23.03;21.23;;;;;;;;;;5034513;28;20440;-85
2021/09/01 04:18:50;;;;;;;23.47;21.30;;;;;;;;;;5034543;28;20414;-84
2021/09/01 04:21:18;;;;;;;23.03;21.40;;;;;;;;;;5034650;28;20767;-84
2021/09/01 04:23:45;;;;;;;23.80;21.80;;;;;;;;;;5034584;28;20443;-85
2021/09/01 04:26:12;;;;;;;23.60;21.90;;;;;;;;;;5033534;28;20480;-84
2021/09/01 04:28:40;;;;;;;24.03;21.93;;;;;;;;;;5034360;28;20413;-85
2021/09/01 04:31:07;;;;;;;23.07;21.30;;;;;;;;;;5034329;28;20419;-84
2021/09/01 04:33:35;;;;;;;24.37;22.33;;;;;;;;;;5033936;28;20495;-85
2021/09/01 04:36:04;;;;;;;23.77;21.40;;;;;;;;;;5034404;28;20426;-85
2021/09/01 04:38:31;;;;;;;24.00;22.47;;;;;;;;;;5034437;28;20422;-85
2021/09/01 04:40:59;;;;;;;25.03;22.80;;;;;;;;;;5033937;28;20418;-85
2021/09/01 04:43:26;;;;;;;24.30;22.07;;;;;;;;;;5033798;28;20494;-85
2021/09/01 04:45:54;;;;;;;24.67;22.83;;;;;;;;;;5034358;28;20440;-85
2021/09/01 04:48:24;;;;;;;26.20;23.87;;;;;;;;;;5034283;28;20432;-84
2021/09/01 04:50:51;;;;;;;24.87;23.10;;;;;;;;;;5034213;28;20593;-84
2021/09/01 04:53:20;;;;;;;24.20;22.40;;;;;;;;;;5034196;28;20834;-85
2021/09/01 04:55:48;;;;;;;24.30;22.40;;;;;;;;;;5033984;28;20455;-84
2021/09/01 04:58:15;;;;;;;25.47;23.17;;;;;;;;;;5034091;28;20438;-85
2021/09/01 05:00:43;;;;;;;24.87;22.87;;;;;;;;;;5033847;28;20476;-85
2021/09/01 05:03:10;;;;;;;24.03;22.30;;;;;;;;;;5034025;28;20794;-84
2021/09/01 05:05:37;;;;;;;24.07;22.47;;;;;;;;;;5034467;28;20427;-84
2021/09/01 05:08:05;;;;;;;24.80;22.77;;;;;;;;;;5033025;28;20431;-84
2021/09/01 05:10:34;;;;;;;24.80;23.10;;;;;;;;;;5037957;28;20447;-84
2021/09/01 05:13:01;;;;;;;24.77;22.40;;;;;;;;;;5038079;28;20461;-85
2021/09/01 05:15:29;;;;;;;24.37;22.50;;;;;;;;;;5037130;28;20426;-85
2021/09/01 05:17:56;;;;;;;25.10;23.20;;;;;;;;;;5037915;28;20418;-84
2021/09/01 05:20:24;;;;;;;24.67;22.73;;;;;;;;;;5036764;28;20447;-84
2021/09/01 05:22:54;;;;;;;24.40;22.30;;;;;;;;;;5036778;28;20909;-84
2021/09/01 05:25:21;;;;;;;23.87;22.13;;;;;;;;;;5038198;28;20437;-85
2021/09/01 05:27:52;;;;;;;24.40;22.53;;;;;;;;;;5037830;28;20517;-84
2021/09/01 05:30:20;;;;;;;23.80;22.03;;;;;;;;;;5037228;28;20448;-80
2021/09/01 05:32:49;;;;;;;24.23;22.00;;;;;;;;;;5036775;28;20993;-79
2021/09/01 05:35:17;;;;;;;23.87;22.07;;;;;;;;;;5036067;28;20440;-80
2021/09/01 05:37:45;;;;;;;23.73;21.70;;;;;;;;;;5037242;28;20446;-85
2021/09/01 05:40:14;;;;;;;23.37;21.57;;;;;;;;;;5037181;28;20479;-84
2021/09/01 05:42:42;;;;;;;22.83;20.97;;;;;;;;;;5037259;28;20417;-79
2021/09/01 05:45:11;;;;;;;22.30;20.77;;;;;;;;;;5036768;28;20438;-80
2021/09/01 05:47:38;;;;;;;22.97;21.20;;;;;;;;;;5037446;28;20914;-84
2021/09/01 05:50:07;;;;;;;22.67;21.07;;;;;;;;;;5049183;28;20420;-82
2021/09/01 05:52:34;;;;;;;22.87;21.27;;;;;;;;;;5056674;28;20976;-82
2021/09/01 05:55:09;;;;;;;24.10;22.10;;;;;;;;;;5057699;28;20768;-83
2021/09/01 05:57:37;;;;;;;24.57;22.30;;;;;;;;;;5057114;28;20413;-83
2021/09/01 06:00:12;;;;;;;22.67;21.10;;;;;;;;;;5058049;28;20475;-83
2021/09/01 06:02:41;;;;;;;23.07;21.23;;;;;;;;;;5056560;28;20435;-81
2021/09/01 06:05:10;;;;;;;22.40;20.47;;;;;;;;;;5057119;28;20471;-85
2021/09/01 06:07:40;;;;;;;22.73;21.03;;;;;;;;;;5057026;28;20751;-84
2021/09/01 06:10:09;;;;;;;22.50;20.70;;;;;;;;;;5056783;28;20911;-85
2021/09/01 06:12:39;;;;;;;22.10;20.63;;;;;;;;;;5056683;28;20408;-84
2021/09/01 06:15:07;;;;;;;23.40;21.90;;;;;;;;;;5056995;28;20472;-84
2021/09/01 06:17:36;;;;;;;23.83;22.07;;;;;;;;;;5057101;28;20414;-83
2021/09/01 06:20:03;;;;;;;24.10;22.30;;;;;;;;;;5056586;28;20426;-83
2021/09/01 06:22:31;;;;;;;22.87;20.80;;;;;;;;;;5055492;28;20763;-83
2021/09/01 06:24:58;;;;;;;23.80;22.03;;;;;;;;;;5056573;28;20435;-84
2021/09/01 06:27:25;;;;;;;24.27;22.13;;;;;;;;;;5056170;28;20919;-83
2021/09/01 06:29:53;;;;;;;23.80;22.00;;;;;;;;;;5056521;28;20427;-85
2021/09/01 06:32:20;;;;;;;22.90;21.10;;;;;;;;;;5056091;28;20447;-84
2021/09/01 06:34:49;;;;;;;22.57;20.70;;;;;;;;;;5036474;28;20480;-83
2021/09/01 06:37:16;;;;;;;23.10;21.27;;;;;;;;;;5036956;28;20444;-83
2021/09/01 06:39:44;;;;;;;24.73;21.80;;;;;;;;;;5036159;28;20942;-83
2021/09/01 06:42:12;;;;;;;24.00;21.80;;;;;;;;;;5036048;28;20481;-84
2021/09/01 06:44:39;;;;;;;20.90;19.60;;;;;;;;;;5036343;28;20431;-84
2021/09/01 06:47:07;;;;;;;22.57;20.93;;;;;;;;;;5036158;28;20435;-84
2021/09/01 06:49:34;;;;;;;20.93;19.53;;;;;;;;;;5037215;28;20453;-84
2021/09/01 06:52:03;;;;;;;21.50;20.00;;;;;;;;;;5036248;28;20419;-84
2021/09/01 06:54:30;;;;;;;22.60;21.10;;;;;;;;;;5035714;28;20488;-83
2021/09/01 06:56:58;;;;;;;22.10;20.63;;;;;;;;;;5035959;28;20436;-83
2021/09/01 06:59:25;;;;;;;22.00;20.20;;;;;;;;;;5036022;28;20420;-85
2021/09/01 07:01:52;;;;;;;23.03;21.47;;;;;;;;;;5035877;28;20892;-83
2021/09/01 07:04:20;;;;;;;21.47;20.07;;;;;;;;;;5036587;28;20443;-84
2021/09/01 07:06:47;;;;;;;21.43;19.93;;;;;;;;;;5035861;28;20422;-82
2021/09/01 07:09:16;;;;;;;21.07;19.77;;;;;;;;;;5035928;28;20422;-84
2021/09/01 07:11:43;;;;;;;22.13;20.73;;;;;;;;;;5035356;28;20450;-84
2021/09/01 07:14:11;;;;;;;23.27;21.40;;;;;;;;;;5034748;28;20461;-85
2021/09/01 07:16:39;;;;;;;23.60;21.80;;;;;;;;;;5035085;28;20424;-83
2021/09/01 07:19:06;;;;;;;23.07;21.20;;;;;;;;;;5036280;28;20449;-86
2021/09/01 07:21:33;;;;;;;22.20;20.80;;;;;;;;;;5034886;28;20416;-84
2021/09/01 07:24:01;;;;;;;23.83;21.83;;;;;;;;;;5035076;28;20424;-83
2021/09/01 07:26:30;;;;;;;23.00;21.13;;;;;;;;;;5035492;28;20817;-82
2021/09/01 07:28:57;;;;;;;22.57;21.03;;;;;;;;;;5035104;28;20425;-84
2021/09/01 07:31:24;;;;;;;22.30;20.67;;;;;;;;;;5034649;28;20429;-80
2021/09/01 07:33:52;;;;;;;22.80;21.00;;;;;;;;;;5047360;28;20481;-81
2021/09/01 07:36:21;;;;;;;21.60;19.90;;;;;;;;;;5055364;28;20501;-80
2021/09/01 07:38:48;;;;;;;21.70;20.20;;;;;;;;;;5055039;28;20414;-83
2021/09/01 07:41:15;;;;;;;23.60;21.67;;;;;;;;;;5054839;28;20792;-83
2021/09/01 07:43:44;;;;;;;22.83;20.93;;;;;;;;;;5054917;28;20447;-90
2021/09/01 07:46:11;;;;;;;23.10;21.50;;;;;;;;;;5055726;28;20450;-88
2021/09/01 07:48:39;;;;;;;22.30;20.43;;;;;;;;;;5055052;28;20414;-84
2021/09/01 07:51:06;;;;;;;24.40;22.23;;;;;;;;;;5034689;28;20867;-83
2021/09/01 07:53:34;;;;;;;23.17;21.43;;;;;;;;;;5034575;28;20487;-83
2021/09/01 07:56:01;;;;;;;23.67;21.97;;;;;;;;;;5034604;28;20427;-82
2021/09/01 07:58:28;;;;;;;24.00;22.43;;;;;;;;;;5034660;28;20415;-82
2021/09/01 08:00:57;;;;;;;24.10;21.83;;;;;;;;;;5034500;28;20423;-83
2021/09/01 08:03:25;;;;;;;24.10;22.20;;;;;;;;;;5034730;28;20440;-83
2021/09/01 08:05:52;;;;;;;24.77;22.67;;;;;;;;;;5035002;28;20453;-83
2021/09/01 08:08:20;;;;;;;23.50;21.40;;;;;;;;;;5034610;28;20802;-81
2021/09/01 08:10:47;;;;;;;23.07;20.93;;;;;;;;;;5034247;28;20410;-83
2021/09/01 08:13:15;;;;;;;23.57;21.77;;;;;;;;;;5034573;28;20411;-87
2021/09/01 08:15:42;;;;;;;25.10;22.93;;;;;;;;;;5050349;28;20441;-87
2021/09/01 08:18:11;;;;;;;24.67;22.80;;;;;;;;;;5034729;28;20620;-85
2021/09/01 08:20:39;;;;;;;25.97;23.63;;;;;;;;;;5034598;28;20419;-83
2021/09/01 08:23:06;;;;;;;26.90;24.70;;;;;;;;;;5034657;28;20448;-85
2021/09/01 08:25:34;;;;;;;24.53;22.60;;;;;;;;;;5033107;28;20418;-86
2021/09/01 08:28:01;;;;;;;25.03;22.80;;;;;;;;;;5049147;28;20456;-85
2021/09/01 08:30:28;;;;;;;23.97;21.80;;;;;;;;;;5034414;28;20457;-85
2021/09/01 08:32:56;;;;;;;23.77;22.03;;;;;;;;;;5034421;28;20567;-85
2021/09/01 08:35:24;;;;;;;23.97;22.40;;;;;;;;;;5033176;28;20481;-84
2021/09/01 08:37:52;;;;;;;23.73;21.77;;;;;;;;;;5042757;28;20900;-82
2021/09/01 08:40:19;;;;;;;23.40;21.80;;;;;;;;;;5053909;28;20456;-81
2021/09/01 08:42:47;;;;;;;22.63;21.23;;;;;;;;;;5053410;28;20432;-81
2021/09/01 08:45:15;;;;;;;23.83;22.07;;;;;;;;;;5053433;28;20414;-82
2021/09/01 08:47:43;;;;;;;23.07;21.57;;;;;;;;;;5052482;28;20448;-83
2021/09/01 08:50:12;;;;;;;22.83;21.23;;;;;;;;;;5053842;28;20414;-84
2021/09/01 08:52:41;;;;;;;23.30;21.17;;;;;;;;;;5053655;28;20435;-81
2021/09/01 08:55:09;;;;;;;22.77;21.20;;;;;;;;;;5053400;28;20493;-79
2021/09/01 08:57:37;;;;;;;23.17;21.20;;;;;;;;;;5053736;28;20473;-83
2021/09/01 09:00:04;;;;;;;22.73;20.93;;;;;;;;;;5053331;28;20816;-81
2021/09/01 09:02:32;;;;;;;23.97;22.17;;;;;;;;;;5053505;28;20425;-84
2021/09/01 09:04:59;;;;;;;22.67;21.03;;;;;;;;;;5053684;28;20445;-82
2021/09/01 09:07:27;;;;;;;23.43;21.50;;;;;;;;;;5053623;28;20420;-80
2021/09/01 09:09:57;;;;;;;22.80;21.10;;;;;;;;;;5053413;28;20902;-81
2021/09/01 09:12:32;;;;;;;22.73;21.03;;;;;;;;;;5054889;28;20542;-84
2021/09/01 09:14:59;;;;;;;22.67;20.87;;;;;;;;;;5055405;28;20487;-83
2021/09/01 09:17:35;;;;;;;25.90;24.03;;;;;;;;;;5054757;28;20440;-80
2021/09/01 09:20:05;;;;;;;24.23;22.33;;;;;;;;;;5053177;28;20453;-80
2021/09/01 09:22:33;;;;;;;22.80;21.30;;;;;;;;;;5053452;28;20442;-79
2021/09/01 09:25:10;;;;;;;25.13;22.67;;;;;;;;;;5053678;28;20487;-81
2021/09/01 09:27:42;;;;;;;24.80;22.47;;;;;;;;;;5052361;28;20785;-82
2021/09/01 09:30:25;;;;;;;23.77;21.93;;;;;;;;;;5053621;28;20444;-82
2021/09/01 09:32:54;;;;;;;23.07;21.27;;;;;;;;;;5049421;28;20458;-85
2021/09/01 09:35:21;;;;;;;25.47;23.10;;;;;;;;;;5033690;28;20481;-82
2021/09/01 09:37:59;;;;;;;23.97;22.37;;;;;;;;;;5011293;28;20967;-85
2021/09/01 09:40:29;;;;;;;24.20;22.40;;;;;;;;;;5033713;28;20427;-85
2021/09/01 09:42:56;;;;;;;23.00;21.37;;;;;;;;;;5033410;28;20441;-82
2021/09/01 09:45:25;;;;;;;23.97;22.10;;;;;;;;;;5033574;28;20433;-81
2021/09/01 09:47:53;;;;;;;23.50;21.80;;;;;;;;;;5033654;28;20412;-82
2021/09/01 09:50:21;;;;;;;24.10;22.30;;;;;;;;;;5015548;28;20477;-82
2021/09/01 09:52:50;;;;;;;23.10;21.20;;;;;;;;;;5033383;28;20441;-82
2021/09/01 09:55:18;;;;;;;23.70;22.00;;;;;;;;;;5034599;28;20451;-82
2021/09/01 09:57:54;;;;;;;24.17;22.17;;;;;;;;;;5037263;28;20437;-83
2021/09/01 10:00:22;;;;;;;25.30;23.30;;;;;;;;;;5036625;28;20476;-83
2021/09/01 10:02:50;;;;;;;22.90;21.30;;;;;;;;;;5037226;28;20442;-83
2021/09/01 10:05:19;;;;;;;24.97;22.70;;;;;;;;;;5036951;28;20462;-83
2021/09/01 10:07:47;;;;;;;24.80;22.97;;;;;;;;;;5036660;28;20462;-84
2021/09/01 10:10:15;;;;;;;24.57;22.30;;;;;;;;;;5036618;28;20537;-85
2021/09/01 10:12:43;;;;;;;24.43;21.97;;;;;;;;;;5036563;28;20909;-82
2021/09/01 10:15:14;;;;;;;26.13;23.57;;;;;;;;;;5036991;28;20459;-83
2021/09/01 10:17:42;;;;;;;24.43;22.17;;;;;;;;;;5036868;28;20415;-84
2021/09/01 10:20:10;;;;;;;22.50;20.50;;;;;;;;;;5037154;28;20528;-82
2021/09/01 10:22:38;;;;;;;24.00;21.93;;;;;;;;;;5036343;28;20419;-82
2021/09/01 10:25:06;;;;;;;25.80;23.57;;;;;;;;;;5036799;28;20419;-85
2021/09/01 10:27:33;;;;;;;24.80;22.70;;;;;;;;;;5036965;28;20431;-88
2021/09/01 10:30:06;;;;;;;23.80;22.10;;;;;;;;;;5036987;28;20432;-87
2021/09/01 10:32:43;;;;;;;25.20;23.20;;;;;;;;;;5038154;28;20904;-85
2021/09/01 10:35:30;;;;;;;24.93;22.63;;;;;;;;;;5056241;28;20455;-81
2021/09/01 10:37:59;;;;;;;24.30;22.40;;;;;;;;;;5056235;28;20431;-88
2021/09/01 10:40:45;;;;;;;24.17;22.30;;;;;;;;;;5055812;28;20982;-86
2021/09/01 10:43:20;;;;;;;23.67;21.87;;;;;;;;;;5055742;28;20425;-83
2021/09/01 10:45:54;;;;;;;24.50;22.30;;;;;;;;;;5056500;28;20422;-84
2021/09/01 10:48:23;;;;;;;24.97;22.90;;;;;;;;;;5055874;28;20465;-83
2021/09/01 10:50:51;;;;;;;24.23;22.40;;;;;;;;;;5055733;28;20799;-82
2021/09/01 10:53:20;;;;;;;25.03;22.33;;;;;;;;;;5056131;28;20519;-85
2021/09/01 10:55:49;;;;;;;25.10;23.00;;;;;;;;;;5055443;28;20561;-83
2021/09/01 10:58:17;;;;;;;24.57;22.67;;;;;;;;;;5055764;28;20418;-83
2021/09/01 11:00:45;;;;;;;23.93;22.03;;;;;;;;;;5055793;28;20408;-86
2021/09/01 11:03:12;;;;;;;24.50;22.50;;;;;;;;;;5055590;28;20418;-81
2021/09/01 11:05:41;;;;;;;25.00;23.13;;;;;;;;;;5055707;28;20408;-82
2021/09/01 11:08:15;;;;;;;23.77;22.00;;;;;;;;;;5054854;28;20506;-81
2021/09/01 11:10:55;;;;;;;25.80;23.57;;;;;;;;;;5055408;28;20473;-81
2021/09/01 11:13:22;;;;;;;25.23;22.87;;;;;;;;;;5055502;28;20473;-89
2021/09/01 11:15:51;;;;;;;26.27;23.67;;;;;;;;;;5056232;28;20488;-82
2021/09/01 11:18:18;;;;;;;27.53;25.23;;;;;;;;;;5055334;28;20464;-83
2021/09/01 11:20:56;;;;;;;26.13;23.80;;;;;;;;;;5055097;28;20443;-84
2021/09/01 11:23:27;;;;;;;24.57;22.87;;;;;;;;;;5055610;28;20533;-86
2021/09/01 11:25:54;;;;;;;25.73;24.03;;;;;;;;;;5055237;28;20412;-82
2021/09/01 11:28:21;;;;;;;24.77;22.60;;;;;;;;;;5055300;28;20447;-82
2021/09/01 11:30:49;;;;;;;25.57;23.47;;;;;;;;;;5055082;28;20448;-82
2021/09/01 11:33:16;;;;;;;24.37;22.40;;;;;;;;;;5054699;28;20459;-82
2021/09/01 11:35:44;;;;;;;26.07;23.77;;;;;;;;;;5055226;28;20490;-82
2021/09/01 11:38:13;;;;;;;26.07;23.90;;;;;;;;;;5054765;28;20436;-83
2021/09/01 11:40:41;;;;;;;25.47;23.03;;;;;;;;;;5055059;28;20506;-82
2021/09/01 11:43:09;;;;;;;25.50;23.57;;;;;;;;;;5054995;28;20420;-83
2021/09/01 11:45:44;;;;;;;25.37;23.43;;;;;;;;;;5055183;28;20423;-82
2021/09/01 11:48:12;;;;;;;23.43;21.70;;;;;;;;;;5055130;28;20415;-83
2021/09/01 11:50:42;;;;;;;25.63;23.63;;;;;;;;;;5055067;28;20436;-82
2021/09/01 11:53:15;;;;;;;24.90;22.83;;;;;;;;;;5054796;28;20767;-82
2021/09/01 11:55:43;;;;;;;25.60;23.63;;;;;;;;;;5054487;28;20976;-82
2021/09/01 11:58:17;;;;;;;26.43;24.20;;;;;;;;;;5054393;28;20449;-81
2021/09/01 12:00:45;;;;;;;25.37;23.50;;;;;;;;;;5054622;28;20416;-82
2021/09/01 12:03:14;;;;;;;26.27;24.10;;;;;;;;;;5054383;28;20402;-81
2021/09/01 12:05:41;;;;;;;25.37;23.13;;;;;;;;;;5054340;28;20422;-81
2021/09/01 12:08:17;;;;;;;24.53;22.63;;;;;;;;;;5054076;28;20493;-82
2021/09/01 12:10:47;;;;;;;25.00;23.20;;;;;;;;;;5054091;28;20466;-80
2021/09/01 12:13:16;;;;;;;25.10;23.03;;;;;;;;;;5053988;28;20434;-80
2021/09/01 12:15:56;;;;;;;24.40;22.50;;;;;;;;;;5054328;28;20526;-81
2021/09/01 12:18:24;;;;;;;24.43;22.73;;;;;;;;;;5054282;28;20910;-82
2021/09/01 12:20:56;;;;;;;26.97;24.73;;;;;;;;;;5054325;28;20424;-82
2021/09/01 12:23:25;;;;;;;24.63;22.83;;;;;;;;;;5054234;28;20442;-81
2021/09/01 12:25:53;;;;;;;24.67;22.63;;;;;;;;;;5054065;28;20508;-81
2021/09/01 12:28:20;;;;;;;26.03;23.83;;;;;;;;;;5054165;28;20468;-88
2021/09/01 12:30:48;;;;;;;25.83;23.53;;;;;;;;;;5036289;28;20452;-79
2021/09/01 12:33:16;;;;;;;25.57;23.33;;;;;;;;;;5053917;28;20477;-81
2021/09/01 12:35:44;;;;;;;24.00;22.23;;;;;;;;;;5054046;28;20460;-84
2021/09/01 12:38:22;;;;;;;25.30;23.20;;;;;;;;;;5053317;28;20716;-83
2021/09/01 12:40:51;;;;;;;26.13;23.77;;;;;;;;;;5053723;28;20453;-81
2021/09/01 12:43:19;;;;;;;25.37;23.27;;;;;;;;;;5054432;28;20760;-88
2021/09/01 12:45:47;;;;;;;26.03;24.03;;;;;;;;;;5054231;28;20452;-83
2021/09/01 12:48:16;;;;;;;24.67;22.87;;;;;;;;;;5054024;28;20429;-82
2021/09/01 12:50:45;;;;;;;24.67;22.97;;;;;;;;;;5053891;28;20431;-87
2021/09/01 12:53:13;;;;;;;23.70;21.87;;;;;;;;;;5053903;28;20412;-81
2021/09/01 12:55:41;;;;;;;25.30;23.27;;;;;;;;;;5053648;28;20499;-83
2021/09/01 12:58:10;;;;;;;25.20;23.30;;;;;;;;;;5053848;28;20547;-83
2021/09/01 13:00:37;;;;;;;26.73;24.53;;;;;;;;;;5053494;28;20421;-85
2021/09/01 13:03:05;;;;;;;26.43;24.33;;;;;;;;;;5054245;28;20473;-85
2021/09/01 13:05:32;;;;;;;26.50;24.40;;;;;;;;;;5053646;28;20445;-84
2021/09/01 13:08:00;;;;;;;25.67;23.83;;;;;;;;;;5035972;28;20439;-85
2021/09/01 13:10:28;;;;;;;25.33;23.43;;;;;;;;;;5036214;28;20452;-84
2021/09/01 13:12:56;;;;;;;26.40;24.00;;;;;;;;;;5053767;28;20445;-81
2021/09/01 13:15:25;;;;;;;26.03;24.10;;;;;;;;;;5053446;28;20473;-83
2021/09/01 13:17:53;;;;;;;26.00;23.80;;;;;;;;;;5053468;28;20439;-83
2021/09/01 13:20:22;;;;;;;26.07;23.87;;;;;;;;;;5053737;28;20773;-82
2021/09/01 13:22:50;;;;;;;26.13;24.07;;;;;;;;;;5053596;28;20460;-85
2021/09/01 13:25:18;;;;;;;26.37;24.07;;;;;;;;;;5053440;28;20483;-83
2021/09/01 13:27:46;;;;;;;25.77;23.57;;;;;;;;;;5053274;28;20456;-83
2021/09/01 13:30:14;;;;;;;26.23;24.23;;;;;;;;;;5055129;28;20457;-84
2021/09/01 13:32:43;;;;;;;27.57;25.10;;;;;;;;;;5057489;28;20428;-84
2021/09/01 13:35:10;;;;;;;27.07;24.27;;;;;;;;;;5057273;28;20838;-82
2021/09/01 13:37:39;;;;;;;26.33;24.43;;;;;;;;;;5058432;28;20785;-85
2021/09/01 13:40:07;;;;;;;25.67;23.77;;;;;;;;;;5057655;28;20464;-81
2021/09/01 13:42:34;;;;;;;26.63;24.70;;;;;;;;;;5057179;28;20450;-84
2021/09/01 13:45:01;;;;;;;26.60;24.60;;;;;;;;;;5056819;28;20824;-80
2021/09/01 13:47:29;;;;;;;25.80;23.97;;;;;;;;;;5056865;28;20907;-81
2021/09/01 13:49:58;;;;;;;26.37;24.50;;;;;;;;;;5056764;28;20433;-81
2021/09/01 13:52:25;;;;;;;26.20;24.03;;;;;;;;;;5056839;28;20412;-81
2021/09/01 13:54:52;;;;;;;26.67;24.67;;;;;;;;;;5056666;28;20928;-81
2021/09/01 13:57:20;;;;;;;25.57;23.73;;;;;;;;;;5056914;28;20783;-81
2021/09/01 13:59:49;;;;;;;26.10;24.20;;;;;;;;;;5056851;28;20459;-80
2021/09/01 14:02:18;;;;;;;26.17;24.20;;;;;;;;;;5056773;28;20485;-81
2021/09/01 14:04:45;;;;;;;26.90;24.60;;;;;;;;;;5056840;28;20415;-83
2021/09/01 14:07:14;;;;;;;27.10;24.93;;;;;;;;;;5056749;28;20461;-81
2021/09/01 14:09:42;;;;;;;27.83;25.37;;;;;;;;;;5056438;28;20431;-81
2021/09/01 14:12:10;;;;;;;24.37;22.77;;;;;;;;;;5056441;28;20435;-81
2021/09/01 14:14:37;;;;;;;25.27;23.37;;;;;;;;;;5056503;28;20420;-81
2021/09/01 14:17:05;;;;;;;27.27;24.40;;;;;;;;;;5056595;28;20485;-81
2021/09/01 14:19:32;;;;;;;26.80;24.50;;;;;;;;;;5056463;28;20411;-81
2021/09/01 14:21:59;;;;;;;26.87;24.77;;;;;;;;;;5056209;28;20915;-81